Dale, Texas
Current Conditions -  °F | °C
As of 12:48 PM on Wednesday 26 Nov 2014 (Local Time) from KHYI Reporting Station
Clear Clear  
Wind Chill: 22°   Ceiling: Unl
Heat Index: 22°   Visibility: 10mi
Dew Point:   Wind: 13mph
Humidity: 25%   Direction: 220°SW
Pressure: 30.18"   Gusts: NA
Location:  29.93°N, 97.57°W
Report Text: KHYI 261848Z 22011KT 10SM SKC 22/01 A3018
Loading
Personal Weather Stations






























Interactive Weather Map New forecast layout! Learn more

10-Day Weather Forecast

Advertisements
Track Severe Weather on mobile